sensor_id;sensor_type;location;lat;lon;timestamp;pressure;altitude;pressure_sealevel;temperature;humidity
78409;BME280;67697;50.750;-3.270;2023-05-07T00:01:36;100792.88;;;11.24;69.29
78409;BME280;67697;50.750;-3.270;2023-05-07T00:04:01;100789.32;;;12.00;66.87
78409;BME280;67697;50.750;-3.270;2023-05-07T00:06:27;100788.12;;;12.10;65.98
78409;BME280;67697;50.750;-3.270;2023-05-07T00:08:53;100784.22;;;12.82;64.12
78409;BME280;67697;50.750;-3.270;2023-05-07T00:11:18;100783.16;;;12.91;63.84
78409;BME280;67697;50.750;-3.270;2023-05-07T00:13:44;100782.74;;;14.40;59.59
78409;BME280;67697;50.750;-3.270;2023-05-07T00:16:10;100782.10;;;12.93;63.05
78409;BME280;67697;50.750;-3.270;2023-05-07T00:18:35;100790.33;;;13.01;63.64
78409;BME280;67697;50.750;-3.270;2023-05-07T00:21:00;100789.39;;;13.95;61.91
78409;BME280;67697;50.750;-3.270;2023-05-07T00:23:25;100792.73;;;14.08;61.19
78409;BME280;67697;50.750;-3.270;2023-05-07T00:25:51;100794.46;;;14.19;59.54
78409;BME280;67697;50.750;-3.270;2023-05-07T00:28:16;100798.20;;;12.42;64.32
78409;BME280;67697;50.750;-3.270;2023-05-07T00:30:42;100796.80;;;12.96;63.41
78409;BME280;67697;50.750;-3.270;2023-05-07T00:33:07;100800.03;;;14.69;58.57
78409;BME280;67697;50.750;-3.270;2023-05-07T00:35:33;100796.27;;;12.40;62.89
78409;BME280;67697;50.750;-3.270;2023-05-07T00:37:59;100794.94;;;12.99;62.68
78409;BME280;67697;50.750;-3.270;2023-05-07T00:40:24;100795.20;;;14.03;59.24
78409;BME280;67697;50.750;-3.270;2023-05-07T00:42:50;100792.73;;;14.67;58.07
78409;BME280;67697;50.750;-3.270;2023-05-07T00:45:16;100792.93;;;14.50;57.53
78409;BME280;67697;50.750;-3.270;2023-05-07T00:47:41;100798.58;;;13.63;59.78
78409;BME280;67697;50.750;-3.270;2023-05-07T00:50:08;100794.00;;;13.04;61.70
78409;BME280;67697;50.750;-3.270;2023-05-07T00:52:33;100797.98;;;14.15;58.94
78409;BME280;67697;50.750;-3.270;2023-05-07T00:55:00;100800.86;;;13.69;60.44
78409;BME280;67697;50.750;-3.270;2023-05-07T00:57:24;100805.62;;;12.12;63.86
78409;BME280;67697;50.750;-3.270;2023-05-07T00:59:51;100808.31;;;12.45;64.58
78409;BME280;67697;50.750;-3.270;2023-05-07T01:02:15;100814.16;;;12.38;64.92
78409;BME280;67697;50.750;-3.270;2023-05-07T01:04:40;100813.56;;;12.89;62.65
78409;BME280;67697;50.750;-3.270;2023-05-07T01:07:06;100820.54;;;11.14;66.38
78409;BME280;67697;50.750;-3.270;2023-05-07T01:09:31;100820.74;;;12.15;63.98
78409;BME280;67697;50.750;-3.270;2023-05-07T01:11:58;100817.00;;;13.97;58.91
78409;BME280;67697;50.750;-3.270;2023-05-07T01:14:22;100819.57;;;13.55;59.58
78409;BME280;67697;50.750;-3.270;2023-05-07T01:16:48;100821.19;;;13.61;59.11
78409;BME280;67697;50.750;-3.270;2023-05-07T01:19:15;100830.00;;;12.07;63.09
78409;BME280;67697;50.750;-3.270;2023-05-07T01:21:38;100831.76;;;14.41;57.36
78409;BME280;67697;50.750;-3.270;2023-05-07T01:24:04;100830.30;;;13.13;59.97
78409;BME280;67697;50.750;-3.270;2023-05-07T01:26:28;100831.53;;;13.74;59.07
78409;BME280;67697;50.750;-3.270;2023-05-07T01:28:54;100836.16;;;13.15;60.73
78409;BME280;67697;50.750;-3.270;2023-05-07T01:31:20;100838.36;;;13.48;59.29
78409;BME280;67697;50.750;-3.270;2023-05-07T01:33:46;100841.74;;;13.92;57.90
78409;BME280;67697;50.750;-3.270;2023-05-07T01:36:12;100843.25;;;13.35;59.53
78409;BME280;67697;50.750;-3.270;2023-05-07T01:38:37;100847.30;;;14.70;55.99
78409;BME280;67697;50.750;-3.270;2023-05-07T01:41:02;100845.00;;;14.37;56.75
78409;BME280;67697;50.750;-3.270;2023-05-07T01:43:28;100849.18;;;14.57;56.31
78409;BME280;67697;50.750;-3.270;2023-05-07T01:45:53;100851.42;;;13.77;57.34
78409;BME280;67697;50.750;-3.270;2023-05-07T01:48:19;100853.86;;;12.67;61.10
78409;BME280;67697;50.750;-3.270;2023-05-07T01:50:44;100851.52;;;13.25;60.45
78409;BME280;67697;50.750;-3.270;2023-05-07T01:53:10;100862.07;;;11.88;63.63
78409;BME280;67697;50.750;-3.270;2023-05-07T01:55:36;100862.37;;;12.67;61.77
78409;BME280;67697;50.750;-3.270;2023-05-07T01:58:01;100862.04;;;11.61;64.19
78409;BME280;67697;50.750;-3.270;2023-05-07T02:00:27;100863.50;;;11.63;64.98
78409;BME280;67697;50.750;-3.270;2023-05-07T02:02:52;100864.11;;;11.50;63.96
78409;BME280;67697;50.750;-3.270;2023-05-07T02:05:18;100863.89;;;13.36;59.33
78409;BME280;67697;50.750;-3.270;2023-05-07T02:07:43;100865.19;;;13.06;60.38
78409;BME280;67697;50.750;-3.270;2023-05-07T02:10:09;100865.40;;;12.45;62.92
78409;BME280;67697;50.750;-3.270;2023-05-07T02:12:34;100863.13;;;12.85;61.33
78409;BME280;67697;50.750;-3.270;2023-05-07T02:15:00;100868.15;;;12.24;62.62
78409;BME280;67697;50.750;-3.270;2023-05-07T02:17:25;100872.39;;;13.01;61.38
78409;BME280;67697;50.750;-3.270;2023-05-07T02:19:51;100877.93;;;12.21;62.75
78409;BME280;67697;50.750;-3.270;2023-05-07T02:22:17;100880.68;;;11.52;65.18
78409;BME280;67697;50.750;-3.270;2023-05-07T02:24:42;100883.41;;;11.08;66.65
78409;BME280;67697;50.750;-3.270;2023-05-07T02:27:08;100878.32;;;12.49;62.97
78409;BME280;67697;50.750;-3.270;2023-05-07T02:29:34;100877.51;;;12.65;62.55
78409;BME280;67697;50.750;-3.270;2023-05-07T02:31:59;100875.27;;;13.11;60.62
78409;BME280;67697;50.750;-3.270;2023-05-07T02:34:25;100877.64;;;14.00;58.31
78409;BME280;67697;50.750;-3.270;2023-05-07T02:36:51;100884.04;;;14.63;56.24
78409;BME280;67697;50.750;-3.270;2023-05-07T02:39:16;100889.10;;;12.72;61.49
78409;BME280;67697;50.750;-3.270;2023-05-07T02:41:42;100889.51;;;13.07;60.55
78409;BME280;67697;50.750;-3.270;2023-05-07T02:44:07;100892.58;;;13.71;59.12
78409;BME280;67697;50.750;-3.270;2023-05-07T02:46:33;100898.78;;;13.91;58.72
78409;BME280;67697;50.750;-3.270;2023-05-07T02:48:59;100899.25;;;13.21;61.34
78409;BME280;67697;50.750;-3.270;2023-05-07T02:51:25;100899.52;;;13.24;59.85
78409;BME280;67697;50.750;-3.270;2023-05-07T02:53:50;100900.90;;;12.31;61.81
78409;BME280;67697;50.750;-3.270;2023-05-07T02:56:15;100899.80;;;13.11;60.79
78409;BME280;67697;50.750;-3.270;2023-05-07T02:58:41;100904.81;;;13.01;60.79
78409;BME280;67697;50.750;-3.270;2023-05-07T03:01:06;100905.52;;;13.69;58.84
78409;BME280;67697;50.750;-3.270;2023-05-07T03:03:31;100907.00;;;13.57;59.40
78409;BME280;67697;50.750;-3.270;2023-05-07T03:05:57;100909.34;;;13.69;58.99
78409;BME280;67697;50.750;-3.270;2023-05-07T03:08:24;100916.34;;;12.09;63.56
78409;BME280;67697;50.750;-3.270;2023-05-07T03:10:48;100921.70;;;10.89;65.31
78409;BME280;67697;50.750;-3.270;2023-05-07T03:13:14;100912.67;;;13.41;59.21
78409;BME280;67697;50.750;-3.270;2023-05-07T03:15:39;100916.34;;;12.50;61.75
78409;BME280;67697;50.750;-3.270;2023-05-07T03:18:05;100920.40;;;12.89;60.19
78409;BME280;67697;50.750;-3.270;2023-05-07T03:20:30;100919.64;;;13.86;57.71
78409;BME280;67697;50.750;-3.270;2023-05-07T03:22:56;100924.96;;;12.79;60.24
78409;BME280;67697;50.750;-3.270;2023-05-07T03:25:21;100918.83;;;13.67;58.65
78409;BME280;67697;50.750;-3.270;2023-05-07T03:27:47;100924.52;;;12.85;60.94
78409;BME280;67697;50.750;-3.270;2023-05-07T03:30:13;100921.00;;;12.86;61.49
78409;BME280;67697;50.750;-3.270;2023-05-07T03:32:38;100912.09;;;13.35;59.56
78409;BME280;67697;50.750;-3.270;2023-05-07T03:35:05;100915.15;;;13.34;59.15
78409;BME280;67697;50.750;-3.270;2023-05-07T03:37:29;100915.21;;;14.44;55.80
78409;BME280;67697;50.750;-3.270;2023-05-07T03:39:55;100917.82;;;13.74;57.60
78409;BME280;67697;50.750;-3.270;2023-05-07T03:42:21;100921.07;;;12.31;60.56
78409;BME280;67697;50.750;-3.270;2023-05-07T03:44:47;100913.13;;;13.23;59.82
78409;BME280;67697;50.750;-3.270;2023-05-07T03:47:12;100910.89;;;14.27;56.61
78409;BME280;67697;50.750;-3.270;2023-05-07T03:49:38;100911.47;;;13.45;58.69
78409;BME280;67697;50.750;-3.270;2023-05-07T03:52:03;100912.91;;;13.53;58.24
78409;BME280;67697;50.750;-3.270;2023-05-07T03:54:29;100909.30;;;13.50;57.98
78409;BME280;67697;50.750;-3.270;2023-05-07T03:56:54;100911.87;;;14.18;55.96
78409;BME280;67697;50.750;-3.270;2023-05-07T03:59:20;100907.53;;;13.88;56.32
78409;BME280;67697;50.750;-3.270;2023-05-07T04:01:46;100906.98;;;15.49;52.51
78409;BME280;67697;50.750;-3.270;2023-05-07T04:04:11;100905.72;;;14.79;53.94
78409;BME280;67697;50.750;-3.270;2023-05-07T04:06:37;100908.33;;;14.93;54.06
78409;BME280;67697;50.750;-3.270;2023-05-07T04:09:02;100910.99;;;15.74;52.45
78409;BME280;67697;50.750;-3.270;2023-05-07T04:11:27;100919.82;;;14.91;54.23
78409;BME280;67697;50.750;-3.270;2023-05-07T04:13:53;100922.96;;;15.10;52.51
78409;BME280;67697;50.750;-3.270;2023-05-07T04:16:19;100920.46;;;15.37;52.18
78409;BME280;67697;50.750;-3.270;2023-05-07T04:18:44;100915.80;;;16.17;50.99
78409;BME280;67697;50.750;-3.270;2023-05-07T04:21:15;100917.93;;;16.17;50.47
78409;BME280;67697;50.750;-3.270;2023-05-07T04:23:35;100923.27;;;14.94;53.20
78409;BME280;67697;50.750;-3.270;2023-05-07T04:26:01;100912.93;;;14.31;56.26
78409;BME280;67697;50.750;-3.270;2023-05-07T04:28:27;100915.70;;;13.41;58.37
78409;BME280;67697;50.750;-3.270;2023-05-07T04:30:52;100921.21;;;13.25;59.10
78409;BME280;67697;50.750;-3.270;2023-05-07T04:33:18;100921.53;;;14.65;55.15
78409;BME280;67697;50.750;-3.270;2023-05-07T04:35:43;100925.73;;;14.39;55.89
78409;BME280;67697;50.750;-3.270;2023-05-07T04:38:09;100931.41;;;14.31;55.46
78409;BME280;67697;50.750;-3.270;2023-05-07T04:40:35;100936.31;;;13.42;57.11
78409;BME280;67697;50.750;-3.270;2023-05-07T04:43:00;100938.54;;;12.10;60.80
78409;BME280;67697;50.750;-3.270;2023-05-07T04:45:26;100928.23;;;13.77;57.63
78409;BME280;67697;50.750;-3.270;2023-05-07T04:47:52;100927.21;;;15.07;54.53
78409;BME280;67697;50.750;-3.270;2023-05-07T04:50:18;100933.80;;;14.02;54.83
78409;BME280;67697;50.750;-3.270;2023-05-07T04:52:43;100939.90;;;13.50;57.07
78409;BME280;67697;50.750;-3.270;2023-05-07T04:55:09;100940.97;;;13.79;55.72
78409;BME280;67697;50.750;-3.270;2023-05-07T04:57:34;100942.22;;;12.78;58.57
78409;BME280;67697;50.750;-3.270;2023-05-07T05:00:00;100941.66;;;14.40;55.04
78409;BME280;67697;50.750;-3.270;2023-05-07T05:02:26;100947.61;;;14.70;54.14
78409;BME280;67697;50.750;-3.270;2023-05-07T05:04:51;100949.04;;;13.44;56.74
78409;BME280;67697;50.750;-3.270;2023-05-07T05:07:17;100954.18;;;13.55;56.17
78409;BME280;67697;50.750;-3.270;2023-05-07T05:09:42;100960.88;;;13.28;58.49
78409;BME280;67697;50.750;-3.270;2023-05-07T05:12:08;100968.31;;;12.70;59.69
78409;BME280;67697;50.750;-3.270;2023-05-07T05:14:33;100978.37;;;12.73;59.69
78409;BME280;67697;50.750;-3.270;2023-05-07T05:16:59;100980.95;;;11.91;61.62
78409;BME280;67697;50.750;-3.270;2023-05-07T05:19:25;100983.69;;;13.15;59.17
78409;BME280;67697;50.750;-3.270;2023-05-07T05:21:50;100983.11;;;14.02;56.43
78409;BME280;67697;50.750;-3.270;2023-05-07T05:24:16;100989.68;;;13.27;58.45
78409;BME280;67697;50.750;-3.270;2023-05-07T05:26:41;100982.19;;;14.04;56.75
78409;BME280;67697;50.750;-3.270;2023-05-07T05:29:07;100978.46;;;15.25;53.12
78409;BME280;67697;50.750;-3.270;2023-05-07T05:31:33;100975.69;;;15.03;53.19
78409;BME280;67697;50.750;-3.270;2023-05-07T05:33:58;100973.45;;;14.84;53.35
78409;BME280;67697;50.750;-3.270;2023-05-07T05:36:23;100972.19;;;14.51;53.83
78409;BME280;67697;50.750;-3.270;2023-05-07T05:38:49;100970.48;;;14.65;54.03
78409;BME280;67697;50.750;-3.270;2023-05-07T05:41:14;100968.99;;;15.35;52.07
78409;BME280;67697;50.750;-3.270;2023-05-07T05:43:40;100972.07;;;14.11;54.61
78409;BME280;67697;50.750;-3.270;2023-05-07T05:46:06;100969.55;;;14.80;54.22
78409;BME280;67697;50.750;-3.270;2023-05-07T05:48:31;100975.93;;;13.68;56.06
78409;BME280;67697;50.750;-3.270;2023-05-07T05:50:57;100976.83;;;14.44;54.10
78409;BME280;67697;50.750;-3.270;2023-05-07T05:53:22;100984.32;;;14.79;53.09
78409;BME280;67697;50.750;-3.270;2023-05-07T05:55:49;100980.91;;;14.06;53.97
78409;BME280;67697;50.750;-3.270;2023-05-07T05:58:14;100982.78;;;15.55;51.33
78409;BME280;67697;50.750;-3.270;2023-05-07T06:00:39;100985.07;;;15.68;50.71
78409;BME280;67697;50.750;-3.270;2023-05-07T06:03:05;100987.69;;;15.69;51.56
78409;BME280;67697;50.750;-3.270;2023-05-07T06:05:30;100984.86;;;14.01;54.36
78409;BME280;67697;50.750;-3.270;2023-05-07T06:07:56;100988.01;;;15.75;50.27
78409;BME280;67697;50.750;-3.270;2023-05-07T06:10:22;100991.96;;;14.51;52.78
78409;BME280;67697;50.750;-3.270;2023-05-07T06:12:48;100996.74;;;15.25;51.12
78409;BME280;67697;50.750;-3.270;2023-05-07T06:15:13;100998.43;;;13.25;56.00
78409;BME280;67697;50.750;-3.270;2023-05-07T06:17:38;101003.66;;;14.45;52.93
78409;BME280;67697;50.750;-3.270;2023-05-07T06:20:05;101010.88;;;15.40;52.24
78409;BME280;67697;50.750;-3.270;2023-05-07T06:22:29;101010.52;;;14.46;52.53
78409;BME280;67697;50.750;-3.270;2023-05-07T06:24:55;101020.60;;;13.53;56.00
78409;BME280;67697;50.750;-3.270;2023-05-07T06:27:20;101022.21;;;13.52;57.28
78409;BME280;67697;50.750;-3.270;2023-05-07T06:29:48;101024.55;;;13.73;56.40
78409;BME280;67697;50.750;-3.270;2023-05-07T06:32:12;101022.14;;;14.15;54.93
78409;BME280;67697;50.750;-3.270;2023-05-07T06:34:37;101024.25;;;15.95;51.42
78409;BME280;67697;50.750;-3.270;2023-05-07T06:37:02;101025.76;;;14.40;52.68
78409;BME280;67697;50.750;-3.270;2023-05-07T06:39:28;101025.56;;;14.77;52.84
78409;BME280;67697;50.750;-3.270;2023-05-07T06:41:54;101024.63;;;14.97;52.38
78409;BME280;67697;50.750;-3.270;2023-05-07T06:44:19;101021.11;;;15.07;53.16
78409;BME280;67697;50.750;-3.270;2023-05-07T06:46:45;101020.76;;;13.78;55.42
78409;BME280;67697;50.750;-3.270;2023-05-07T06:49:10;101022.34;;;15.20;52.49
78409;BME280;67697;50.750;-3.270;2023-05-07T06:51:36;101022.71;;;15.62;51.69
78409;BME280;67697;50.750;-3.270;2023-05-07T06:54:02;101022.08;;;15.80;50.61
78409;BME280;67697;50.750;-3.270;2023-05-07T06:56:27;101025.43;;;14.75;53.26
78409;BME280;67697;50.750;-3.270;2023-05-07T07:01:18;101027.37;;;14.44;54.30
78409;BME280;67697;50.750;-3.270;2023-05-07T07:03:44;101027.56;;;13.24;56.68
78409;BME280;67697;50.750;-3.270;2023-05-07T07:06:09;101029.15;;;15.41;52.51
78409;BME280;67697;50.750;-3.270;2023-05-07T07:08:35;101025.43;;;14.67;53.72
78409;BME280;67697;50.750;-3.270;2023-05-07T07:11:00;101026.40;;;13.71;55.70
78409;BME280;67697;50.750;-3.270;2023-05-07T07:13:26;101027.10;;;14.43;55.12
78409;BME280;67697;50.750;-3.270;2023-05-07T07:15:52;101035.06;;;14.31;55.57
78409;BME280;67697;50.750;-3.270;2023-05-07T07:18:17;101041.77;;;14.27;55.20
78409;BME280;67697;50.750;-3.270;2023-05-07T07:20:43;101050.70;;;14.60;55.45
78409;BME280;67697;50.750;-3.270;2023-05-07T07:23:08;101054.99;;;13.89;55.92
78409;BME280;67697;50.750;-3.270;2023-05-07T07:25:34;101053.24;;;15.50;52.86
78409;BME280;67697;50.750;-3.270;2023-05-07T07:27:59;101053.21;;;14.67;52.90
78409;BME280;67697;50.750;-3.270;2023-05-07T07:30:25;101059.26;;;13.34;56.95
78409;BME280;67697;50.750;-3.270;2023-05-07T07:32:50;101060.76;;;13.86;55.61
78409;BME280;67697;50.750;-3.270;2023-05-07T07:35:16;101061.13;;;13.60;55.93
78409;BME280;67697;50.750;-3.270;2023-05-07T07:37:41;101056.65;;;14.07;54.52
78409;BME280;67697;50.750;-3.270;2023-05-07T07:40:08;101059.11;;;13.14;55.86
78409;BME280;67697;50.750;-3.270;2023-05-07T07:42:33;101068.59;;;12.69;56.56
78409;BME280;67697;50.750;-3.270;2023-05-07T07:44:58;101074.32;;;13.27;56.74
78409;BME280;67697;50.750;-3.270;2023-05-07T07:47:24;101079.94;;;13.83;55.19
78409;BME280;67697;50.750;-3.270;2023-05-07T07:49:50;101079.18;;;15.32;52.50
78409;BME280;67697;50.750;-3.270;2023-05-07T07:52:15;101084.96;;;14.56;52.84
78409;BME280;67697;50.750;-3.270;2023-05-07T07:54:41;101087.60;;;13.23;56.39
78409;BME280;67697;50.750;-3.270;2023-05-07T07:57:06;101089.89;;;14.61;54.08
78409;BME280;67697;50.750;-3.270;2023-05-07T07:59:32;101093.07;;;15.52;51.47
78409;BME280;67697;50.750;-3.270;2023-05-07T08:01:57;101098.79;;;14.82;52.68
78409;BME280;67697;50.750;-3.270;2023-05-07T08:04:23;101102.03;;;15.13;52.30
78409;BME280;67697;50.750;-3.270;2023-05-07T08:06:49;101109.54;;;14.07;53.90
78409;BME280;67697;50.750;-3.270;2023-05-07T08:09:14;101106.35;;;15.63;51.28
78409;BME280;67697;50.750;-3.270;2023-05-07T08:11:40;101107.65;;;16.11;49.05
78409;BME280;67697;50.750;-3.270;2023-05-07T08:14:05;101108.90;;;15.55;50.08
78409;BME280;67697;50.750;-3.270;2023-05-07T08:16:31;101111.14;;;14.56;51.95
78409;BME280;67697;50.750;-3.270;2023-05-07T08:18:56;101116.85;;;15.02;51.94
78409;BME280;67697;50.750;-3.270;2023-05-07T08:21:22;101118.99;;;14.56;53.53
78409;BME280;67697;50.750;-3.270;2023-05-07T08:23:48;101116.46;;;14.48;53.44
78409;BME280;67697;50.750;-3.270;2023-05-07T08:26:13;101116.00;;;15.18;51.24
78409;BME280;67697;50.750;-3.270;2023-05-07T08:28:39;101115.43;;;14.48;53.58
78409;BME280;67697;50.750;-3.270;2023-05-07T08:31:04;101119.53;;;13.83;55.84
78409;BME280;67697;50.750;-3.270;2023-05-07T08:33:30;101117.34;;;16.11;50.53
78409;BME280;67697;50.750;-3.270;2023-05-07T08:35:55;101117.46;;;15.96;51.36
78409;BME280;67697;50.750;-3.270;2023-05-07T08:38:21;101121.31;;;15.59;49.60
78409;BME280;67697;50.750;-3.270;2023-05-07T08:40:47;101130.81;;;16.31;48.86
78409;BME280;67697;50.750;-3.270;2023-05-07T08:43:13;101132.63;;;16.15;48.56
78409;BME280;67697;50.750;-3.270;2023-05-07T08:45:39;101133.58;;;15.40;51.33
78409;BME280;67697;50.750;-3.270;2023-05-07T08:48:08;101138.72;;;15.94;51.34
78409;BME280;67697;50.750;-3.270;2023-05-07T08:50:29;101148.27;;;14.62;53.67
78409;BME280;67697;50.750;-3.270;2023-05-07T08:52:55;101156.86;;;15.01;53.39
78409;BME280;67697;50.750;-3.270;2023-05-07T08:55:20;101158.04;;;15.07;52.93
78409;BME280;67697;50.750;-3.270;2023-05-07T08:57:46;101157.80;;;15.23;52.22
78409;BME280;67697;50.750;-3.270;2023-05-07T09:00:13;101159.79;;;14.97;52.36
78409;BME280;67697;50.750;-3.270;2023-05-07T09:02:37;101165.51;;;15.55;51.71
78409;BME280;67697;50.750;-3.270;2023-05-07T09:05:02;101164.92;;;16.33;49.66
78409;BME280;67697;50.750;-3.270;2023-05-07T09:07:28;101165.30;;;15.81;50.35
78409;BME280;67697;50.750;-3.270;2023-05-07T09:09:54;101163.76;;;15.57;50.79
78409;BME280;67697;50.750;-3.270;2023-05-07T09:12:20;101152.73;;;15.28;50.69
78409;BME280;67697;50.750;-3.270;2023-05-07T09:14:45;101148.27;;;15.75;50.45
78409;BME280;67697;50.750;-3.270;2023-05-07T09:17:10;101144.70;;;16.30;47.62
78409;BME280;67697;50.750;-3.270;2023-05-07T09:19:36;101140.65;;;16.14;47.43
78409;BME280;67697;50.750;-3.270;2023-05-07T09:22:03;101140.41;;;15.90;48.02
78409;BME280;67697;50.750;-3.270;2023-05-07T09:24:27;101146.20;;;15.37;49.44
78409;BME280;67697;50.750;-3.270;2023-05-07T09:26:53;101148.82;;;15.06;49.98
78409;BME280;67697;50.750;-3.270;2023-05-07T09:29:18;101148.02;;;17.00;46.65
78409;BME280;67697;50.750;-3.270;2023-05-07T09:31:44;101150.64;;;16.54;47.04
78409;BME280;67697;50.750;-3.270;2023-05-07T09:34:09;101155.76;;;17.00;46.46
78409;BME280;67697;50.750;-3.270;2023-05-07T09:36:35;101162.39;;;17.07;46.84
78409;BME280;67697;50.750;-3.270;2023-05-07T09:39:01;101156.28;;;17.70;45.77
78409;BME280;67697;50.750;-3.270;2023-05-07T09:41:26;101153.47;;;18.15;44.86
78409;BME280;67697;50.750;-3.270;2023-05-07T09:43:54;101152.68;;;17.55;44.80
78409;BME280;67697;50.750;-3.270;2023-05-07T09:46:18;101153.63;;;18.09;43.96
78409;BME280;67697;50.750;-3.270;2023-05-07T09:48:44;101160.42;;;16.06;48.73
78409;BME280;67697;50.750;-3.270;2023-05-07T09:51:18;101165.19;;;16.54;47.53
78409;BME280;67697;50.750;-3.270;2023-05-07T09:53:34;101169.84;;;16.31;49.04
78409;BME280;67697;50.750;-3.270;2023-05-07T09:56:00;101170.24;;;15.21;52.19
78409;BME280;67697;50.750;-3.270;2023-05-07T09:58:26;101173.21;;;15.56;52.25
78409;BME280;67697;50.750;-3.270;2023-05-07T10:00:51;101176.09;;;15.36;53.63
78409;BME280;67697;50.750;-3.270;2023-05-07T10:03:18;101179.38;;;15.94;52.72
78409;BME280;67697;50.750;-3.270;2023-05-07T10:05:42;101183.03;;;16.39;51.14
78409;BME280;67697;50.750;-3.270;2023-05-07T10:08:08;101191.77;;;15.57;51.62
78409;BME280;67697;50.750;-3.270;2023-05-07T10:10:34;101189.31;;;16.33;49.65
78409;BME280;67697;50.750;-3.270;2023-05-07T10:12:58;101181.48;;;15.41;51.29
78409;BME280;67697;50.750;-3.270;2023-05-07T10:15:25;101181.47;;;16.01;50.08
78409;BME280;67697;50.750;-3.270;2023-05-07T10:17:49;101187.17;;;16.95;50.22
78409;BME280;67697;50.750;-3.270;2023-05-07T10:20:15;101189.79;;;17.09;49.09
78409;BME280;67697;50.750;-3.270;2023-05-07T10:22:43;101186.54;;;16.88;48.86
78409;BME280;67697;50.750;-3.270;2023-05-07T10:25:12;101190.22;;;17.00;49.47
78409;BME280;67697;50.750;-3.270;2023-05-07T10:27:31;101195.93;;;17.05;49.45
78409;BME280;67697;50.750;-3.270;2023-05-07T10:30:03;101196.10;;;16.42;50.34
78409;BME280;67697;50.750;-3.270;2023-05-07T10:32:33;101194.95;;;16.07;51.40
78409;BME280;67697;50.750;-3.270;2023-05-07T10:34:50;101199.55;;;16.93;48.70
78409;BME280;67697;50.750;-3.270;2023-05-07T10:37:14;101197.00;;;16.08;53.68
78409;BME280;67697;50.750;-3.270;2023-05-07T10:39:40;101195.95;;;16.89;49.67
78409;BME280;67697;50.750;-3.270;2023-05-07T10:42:09;101195.14;;;15.87;52.70
78409;BME280;67697;50.750;-3.270;2023-05-07T10:44:31;101200.59;;;17.24;47.81
78409;BME280;67697;50.750;-3.270;2023-05-07T10:47:04;101193.40;;;17.74;46.90
78409;BME280;67697;50.750;-3.270;2023-05-07T10:49:21;101192.46;;;18.44;46.94
78409;BME280;67697;50.750;-3.270;2023-05-07T10:54:19;101189.76;;;17.61;45.51
78409;BME280;67697;50.750;-3.270;2023-05-07T10:56:38;101189.38;;;17.38;46.58
78409;BME280;67697;50.750;-3.270;2023-05-07T11:04:12;101205.52;;;17.08;46.73
78409;BME280;67697;50.750;-3.270;2023-05-07T11:06:20;101207.74;;;17.52;46.37
78409;BME280;67697;50.750;-3.270;2023-05-07T11:08:54;101208.76;;;17.78;46.43
78409;BME280;67697;50.750;-3.270;2023-05-07T11:11:11;101210.29;;;17.89;46.68
78409;BME280;67697;50.750;-3.270;2023-05-07T11:13:43;101215.64;;;17.01;47.92
78409;BME280;67697;50.750;-3.270;2023-05-07T11:16:03;101216.88;;;18.02;46.46
78409;BME280;67697;50.750;-3.270;2023-05-07T11:20:56;101221.69;;;16.49;49.91
78409;BME280;67697;50.750;-3.270;2023-05-07T11:25:44;101225.67;;;16.12;51.28
78409;BME280;67697;50.750;-3.270;2023-05-07T11:28:10;101233.21;;;16.43;52.84
78409;BME280;67697;50.750;-3.270;2023-05-07T11:30:35;101239.03;;;16.34;50.28
78409;BME280;67697;50.750;-3.270;2023-05-07T11:33:01;101241.15;;;17.05;50.58
78409;BME280;67697;50.750;-3.270;2023-05-07T11:35:27;101239.97;;;15.73;52.79
78409;BME280;67697;50.750;-3.270;2023-05-07T11:37:58;101238.60;;;15.74;53.11
78409;BME280;67697;50.750;-3.270;2023-05-07T11:40:18;101237.40;;;16.40;51.87
78409;BME280;67697;50.750;-3.270;2023-05-07T11:42:43;101241.37;;;16.87;49.58
78409;BME280;67697;50.750;-3.270;2023-05-07T11:45:09;101241.82;;;17.00;49.17
78409;BME280;67697;50.750;-3.270;2023-05-07T11:47:35;101243.49;;;17.21;49.64
78409;BME280;67697;50.750;-3.270;2023-05-07T11:50:03;101246.57;;;16.83;51.00
78409;BME280;67697;50.750;-3.270;2023-05-07T11:52:25;101247.99;;;17.66;47.77
78409;BME280;67697;50.750;-3.270;2023-05-07T11:54:52;101246.76;;;17.27;47.42
78409;BME280;67697;50.750;-3.270;2023-05-07T11:57:17;101249.54;;;17.48;47.80
78409;BME280;67697;50.750;-3.270;2023-05-07T11:59:42;101248.12;;;17.62;46.56
78409;BME280;67697;50.750;-3.270;2023-05-07T12:02:08;101237.62;;;18.91;45.00
78409;BME280;67697;50.750;-3.270;2023-05-07T12:04:33;101240.16;;;17.62;47.76
78409;BME280;67697;50.750;-3.270;2023-05-07T12:06:59;101243.68;;;17.46;47.50
78409;BME280;67697;50.750;-3.270;2023-05-07T12:09:26;101241.11;;;17.92;44.35
78409;BME280;67697;50.750;-3.270;2023-05-07T12:11:51;101235.08;;;18.67;43.50
78409;BME280;67697;50.750;-3.270;2023-05-07T12:14:15;101242.41;;;17.27;47.29
78409;BME280;67697;50.750;-3.270;2023-05-07T12:16:41;101253.12;;;17.76;45.40
78409;BME280;67697;50.750;-3.270;2023-05-07T12:19:07;101247.80;;;18.60;43.33
78409;BME280;67697;50.750;-3.270;2023-05-07T12:21:32;101243.45;;;18.82;42.71
78409;BME280;67697;50.750;-3.270;2023-05-07T12:23:58;101244.34;;;17.59;44.17
78409;BME280;67697;50.750;-3.270;2023-05-07T12:26:23;101244.04;;;16.59;46.84
78409;BME280;67697;50.750;-3.270;2023-05-07T12:28:48;101238.40;;;18.34;43.39
78409;BME280;67697;50.750;-3.270;2023-05-07T12:31:14;101240.70;;;18.33;44.51
78409;BME280;67697;50.750;-3.270;2023-05-07T12:33:40;101246.11;;;18.28;45.12
78409;BME280;67697;50.750;-3.270;2023-05-07T12:36:06;101245.56;;;19.28;42.96
78409;BME280;67697;50.750;-3.270;2023-05-07T12:38:35;101248.95;;;19.38;43.25
78409;BME280;67697;50.750;-3.270;2023-05-07T12:40:56;101248.03;;;19.20;41.71
78409;BME280;67697;50.750;-3.270;2023-05-07T12:43:24;101247.40;;;19.16;43.79
78409;BME280;67697;50.750;-3.270;2023-05-07T12:45:48;101251.55;;;19.52;41.71